createdAt,value
2023-04-12T04:00:50.577Z,990.86
2023-04-12T04:01:51.509Z,990.84
2023-04-12T04:02:51.514Z,990.78
2023-04-12T04:03:51.602Z,990.78
2023-04-12T04:04:51.580Z,990.77
2023-04-12T04:05:51.433Z,990.74
2023-04-12T04:06:51.493Z,990.70
2023-04-12T04:07:51.434Z,990.63
2023-04-12T04:08:51.426Z,990.65
2023-04-12T04:09:51.421Z,990.65
2023-04-12T04:10:51.394Z,990.64
2023-04-12T04:11:51.391Z,990.64
2023-04-12T04:12:51.404Z,990.61
2023-04-12T04:13:51.380Z,990.59
2023-04-12T04:14:51.359Z,990.55
2023-04-12T04:15:51.374Z,990.54
2023-04-12T04:16:51.330Z,990.53
2023-04-12T04:17:51.399Z,990.52
2023-04-12T04:18:51.314Z,990.55
2023-04-12T04:19:51.317Z,990.54
2023-04-12T04:20:51.318Z,990.49
2023-04-12T04:21:51.978Z,990.47
2023-04-12T04:22:51.313Z,990.46
2023-04-12T04:23:51.247Z,990.42
2023-04-12T04:24:51.285Z,990.39
2023-04-12T04:25:51.223Z,990.37
2023-04-12T04:26:51.220Z,990.35
2023-04-12T04:27:51.290Z,990.32
2023-04-12T04:28:51.228Z,990.31
2023-04-12T04:29:51.220Z,990.21
2023-04-12T04:30:51.181Z,990.23
2023-04-12T04:31:51.221Z,990.18
2023-04-12T04:32:51.261Z,990.15
2023-04-12T04:33:51.177Z,990.16
2023-04-12T04:34:51.168Z,990.10
2023-04-12T04:35:51.170Z,990.11
2023-04-12T04:36:51.118Z,990.06
2023-04-12T04:37:51.147Z,990.07
2023-04-12T04:38:51.142Z,990.07
2023-04-12T04:39:51.104Z,990.03
2023-04-12T04:40:51.070Z,990.04
2023-04-12T04:41:51.077Z,990.01
2023-04-12T04:42:51.100Z,990.03
2023-04-12T04:43:51.087Z,990.03
2023-04-12T04:44:51.061Z,990.01
2023-04-12T04:45:51.054Z,990.00
2023-04-12T04:46:51.033Z,990.05
2023-04-12T04:47:51.080Z,989.99
2023-04-12T04:48:51.007Z,990.00
2023-04-12T04:49:51.015Z,989.98
2023-04-12T04:50:50.967Z,989.97
2023-04-12T04:51:50.960Z,989.90
2023-04-12T04:52:51.000Z,989.93
2023-04-12T04:53:50.976Z,989.87
2023-04-12T04:54:50.949Z,989.87
2023-04-12T04:55:50.918Z,989.78
2023-04-12T04:56:50.924Z,989.77
2023-04-12T04:57:50.939Z,989.76
2023-04-12T04:58:50.900Z,989.72
2023-04-12T04:59:50.872Z,989.69
2023-04-12T05:00:50.901Z,989.72
2023-04-12T05:01:50.945Z,989.71
2023-04-12T05:02:50.993Z,989.70
2023-04-12T05:03:50.997Z,989.69
2023-04-12T05:04:50.811Z,989.66
2023-04-12T05:05:50.801Z,989.61
2023-04-12T05:06:50.809Z,989.64
2023-04-12T05:07:50.821Z,989.61
2023-04-12T05:08:50.788Z,989.61
2023-04-12T05:09:50.752Z,989.56
2023-04-12T05:10:50.762Z,989.55
2023-04-12T05:11:50.722Z,989.52
2023-04-12T05:12:50.784Z,989.49
2023-04-12T05:13:50.731Z,989.48
2023-04-12T05:14:51.845Z,989.45
2023-04-12T05:15:50.722Z,989.47
2023-04-12T05:16:50.703Z,989.34
2023-04-12T05:17:50.784Z,989.43
2023-04-12T05:18:50.662Z,989.41
2023-04-12T05:19:50.640Z,989.41
2023-04-12T05:20:50.651Z,989.38
2023-04-12T05:21:50.645Z,989.35
2023-04-12T05:22:50.639Z,989.33
2023-04-12T05:23:50.612Z,989.30
2023-04-12T05:24:50.612Z,989.31
2023-04-12T05:25:50.597Z,989.27
2023-04-12T05:26:50.580Z,989.28
2023-04-12T05:27:52.041Z,989.29
2023-04-12T05:28:50.575Z,989.27
2023-04-12T05:29:50.557Z,989.26
2023-04-12T05:30:50.585Z,989.25
2023-04-12T05:31:50.513Z,989.25
2023-04-12T05:32:50.640Z,989.23
2023-04-12T05:33:50.512Z,989.19
2023-04-12T05:34:50.514Z,989.20
2023-04-12T05:35:50.525Z,989.19
2023-04-12T05:36:50.463Z,988.99
2023-04-12T05:37:50.589Z,989.14
2023-04-12T05:38:50.437Z,989.09
2023-04-12T05:39:50.451Z,989.05
2023-04-12T05:40:50.483Z,989.08
2023-04-12T05:41:50.418Z,989.11
2023-04-12T05:42:50.499Z,989.12
2023-04-12T05:43:50.381Z,989.10
2023-04-12T05:44:50.377Z,989.05
2023-04-12T05:45:50.386Z,989.07
2023-04-12T05:46:50.362Z,989.03
2023-04-12T05:47:50.464Z,989.03
2023-04-12T05:48:50.340Z,988.97
2023-04-12T05:49:50.323Z,988.97
2023-04-12T05:50:50.320Z,988.92
2023-04-12T05:51:50.306Z,988.90
2023-04-12T05:52:50.347Z,988.92
2023-04-12T05:53:50.327Z,988.87
2023-04-12T05:54:50.270Z,988.86
2023-04-12T05:55:50.280Z,988.86
2023-04-12T05:56:50.266Z,988.80
2023-04-12T05:57:50.316Z,988.78
2023-04-12T05:58:50.233Z,988.79
2023-04-12T05:59:50.223Z,988.79
2023-04-12T06:00:50.249Z,988.80
2023-04-12T06:01:50.203Z,988.77
2023-04-12T06:02:50.475Z,988.76
2023-04-12T06:03:50.328Z,988.76
2023-04-12T06:04:51.610Z,988.74
2023-04-12T06:05:50.188Z,988.69
2023-04-12T06:06:50.186Z,988.73
2023-04-12T06:07:50.143Z,988.72
2023-04-12T06:08:50.145Z,988.70
2023-04-12T06:09:50.225Z,988.69
2023-04-12T06:10:50.143Z,988.66
2023-04-12T06:11:50.109Z,988.66
2023-04-12T06:12:50.120Z,988.65
2023-04-12T06:13:50.068Z,988.63
2023-04-12T06:14:50.075Z,988.62
2023-04-12T06:15:50.074Z,988.60
2023-04-12T06:16:50.032Z,988.57
2023-04-12T06:17:50.087Z,988.61
2023-04-12T06:18:50.047Z,988.62
2023-04-12T06:19:50.028Z,988.60
2023-04-12T06:20:50.015Z,988.56
2023-04-12T06:21:49.987Z,988.57
2023-04-12T06:22:49.996Z,988.58
2023-04-12T06:23:50.009Z,988.58
2023-04-12T06:24:49.978Z,988.58
2023-04-12T06:25:49.952Z,988.54
2023-04-12T06:26:49.927Z,988.56
2023-04-12T06:27:49.976Z,988.53
2023-04-12T06:28:49.906Z,988.47
2023-04-12T06:29:49.904Z,988.51
2023-04-12T06:30:49.891Z,988.45
2023-04-12T06:31:49.946Z,988.45
2023-04-12T06:32:49.922Z,988.42
2023-04-12T06:33:49.865Z,988.38
2023-04-12T06:34:49.845Z,988.39
2023-04-12T06:35:49.878Z,988.38
2023-04-12T06:36:49.824Z,988.34
2023-04-12T06:37:49.830Z,988.35
2023-04-12T06:38:49.797Z,988.35
2023-04-12T06:39:49.786Z,988.34
2023-04-12T06:40:49.781Z,988.33
2023-04-12T06:41:49.778Z,988.34
2023-04-12T06:42:49.825Z,988.31
2023-04-12T06:43:49.742Z,988.29
2023-04-12T06:44:49.744Z,988.29
2023-04-12T06:45:49.729Z,988.26
2023-04-12T06:46:49.742Z,988.22
2023-04-12T06:47:49.758Z,988.21
2023-04-12T06:48:49.768Z,988.15
2023-04-12T06:49:49.701Z,988.15
2023-04-12T06:50:49.670Z,988.14
2023-04-12T06:51:49.654Z,988.12
2023-04-12T06:52:49.687Z,988.06
2023-04-12T06:53:49.652Z,988.08
2023-04-12T06:54:49.626Z,988.04
2023-04-12T06:55:49.603Z,988.01
2023-04-12T06:56:49.602Z,988.00
2023-04-12T06:57:49.581Z,988.00
2023-04-12T06:58:49.883Z,987.97
2023-04-12T06:59:49.574Z,987.96
2023-04-12T07:00:49.644Z,987.95
2023-04-12T07:01:49.590Z,987.94
2023-04-12T07:02:49.699Z,987.91
2023-04-12T07:03:49.612Z,987.90
2023-04-12T07:04:49.547Z,987.88
2023-04-12T07:05:49.527Z,987.88
2023-04-12T07:06:49.526Z,987.86
2023-04-12T07:07:49.523Z,987.89
2023-04-12T07:08:49.555Z,987.88
2023-04-12T07:09:49.449Z,987.86
2023-04-12T07:10:49.472Z,987.81
2023-04-12T07:11:49.429Z,987.82
2023-04-12T07:12:49.441Z,987.82
2023-04-12T07:13:49.458Z,987.84
2023-04-12T07:14:49.406Z,987.83
2023-04-12T07:15:49.404Z,987.83
2023-04-12T07:16:49.435Z,987.79
2023-04-12T07:17:49.410Z,987.74
2023-04-12T07:18:49.384Z,987.70
2023-04-12T07:19:49.348Z,987.67
2023-04-12T07:20:49.332Z,987.64
2023-04-12T07:21:49.344Z,987.63
2023-04-12T07:22:49.315Z,987.60
2023-04-12T07:23:49.380Z,987.58
2023-04-12T07:24:49.295Z,987.56
2023-04-12T07:25:49.310Z,987.51
2023-04-12T07:26:49.283Z,987.52
2023-04-12T07:27:51.279Z,987.49
2023-04-12T07:28:49.281Z,987.43
2023-04-12T07:29:49.309Z,987.40
2023-04-12T07:30:49.250Z,987.37
2023-04-12T07:31:49.241Z,987.38
2023-04-12T07:32:49.307Z,987.34
2023-04-12T07:33:49.262Z,987.33
2023-04-12T07:34:49.185Z,987.33
2023-04-12T07:35:49.259Z,987.32
2023-04-12T07:36:49.199Z,987.31
2023-04-12T07:37:49.199Z,987.27
2023-04-12T07:38:49.199Z,987.29
2023-04-12T07:39:49.211Z,987.26
2023-04-12T07:40:50.180Z,987.25
2023-04-12T07:41:49.169Z,987.21
2023-04-12T07:42:49.462Z,987.19
2023-04-12T07:43:49.106Z,987.19
2023-04-12T07:44:49.083Z,987.18
2023-04-12T07:45:49.134Z,987.18
2023-04-12T07:46:49.072Z,987.20
2023-04-12T07:47:49.340Z,987.20
2023-04-12T07:48:49.101Z,987.18
2023-04-12T07:49:49.036Z,987.18
2023-04-12T07:50:49.055Z,987.17
2023-04-12T07:51:49.039Z,987.12
2023-04-12T07:52:49.031Z,987.10
2023-04-12T07:53:49.005Z,987.07
2023-04-12T07:54:48.983Z,987.05
2023-04-12T07:55:49.003Z,987.02
2023-04-12T07:56:48.960Z,986.99
2023-04-12T07:57:48.993Z,986.98
2023-04-12T07:58:48.989Z,986.94
2023-04-12T07:59:48.924Z,986.95
2023-04-12T08:00:48.912Z,986.95
2023-04-12T08:01:48.992Z,986.94
2023-04-12T08:02:49.025Z,986.94
2023-04-12T08:03:49.072Z,986.92
2023-04-12T08:04:48.879Z,986.89
2023-04-12T08:05:48.945Z,986.89
2023-04-12T08:06:48.886Z,986.83
2023-04-12T08:07:48.904Z,986.87
2023-04-12T08:08:48.973Z,986.83
2023-04-12T08:09:48.912Z,986.83
2023-04-12T08:10:48.875Z,986.85
2023-04-12T08:11:48.926Z,986.86
2023-04-12T08:12:48.899Z,986.81
2023-04-12T08:13:48.864Z,986.80
2023-04-12T08:14:48.820Z,986.77
2023-04-12T08:15:48.934Z,986.78
2023-04-12T08:16:48.818Z,986.76
2023-04-12T08:17:49.186Z,986.73
2023-04-12T08:18:48.899Z,986.72
2023-04-12T08:19:48.835Z,986.69
2023-04-12T08:20:48.772Z,986.66
2023-04-12T08:21:48.750Z,986.62
2023-04-12T08:22:48.800Z,986.61
2023-04-12T08:23:48.771Z,986.55
2023-04-12T08:24:48.785Z,986.56
2023-04-12T08:25:48.738Z,986.53
2023-04-12T08:26:48.678Z,986.53
2023-04-12T08:27:48.649Z,986.52
2023-04-12T08:28:48.718Z,986.52
2023-04-12T08:29:48.708Z,986.50
2023-04-12T08:30:48.756Z,986.52
2023-04-12T08:31:48.670Z,986.50
2023-04-12T08:32:48.811Z,986.50
2023-04-12T08:33:48.613Z,986.49
2023-04-12T08:34:48.697Z,986.48
2023-04-12T08:35:48.758Z,986.47
2023-04-12T08:36:48.718Z,986.44
2023-04-12T08:37:48.640Z,986.43
2023-04-12T08:38:48.526Z,986.43
2023-04-12T08:39:48.495Z,986.43
2023-04-12T08:40:48.570Z,986.41
2023-04-12T08:41:48.527Z,986.41
2023-04-12T08:42:48.579Z,986.37
2023-04-12T08:43:48.607Z,986.39
2023-04-12T08:44:48.674Z,986.39
2023-04-12T08:45:48.478Z,986.39
2023-04-12T08:46:48.539Z,986.33
2023-04-12T08:47:48.532Z,986.32
2023-04-12T08:48:48.593Z,986.32
2023-04-12T08:49:48.506Z,986.29
2023-04-12T08:50:50.606Z,986.28
2023-04-12T08:51:48.393Z,986.32
2023-04-12T08:52:48.421Z,986.31
2023-04-12T08:53:48.463Z,986.32
2023-04-12T08:54:48.404Z,986.29
2023-04-12T08:55:48.344Z,986.32
2023-04-12T08:56:48.345Z,986.31
2023-04-12T08:57:48.387Z,986.29
2023-04-12T08:58:48.369Z,986.30
2023-04-12T08:59:48.384Z,986.30
2023-04-12T09:00:48.309Z,986.32
2023-04-12T09:01:48.408Z,986.35
2023-04-12T09:02:48.495Z,986.38
2023-04-12T09:03:48.486Z,986.36
2023-04-12T09:04:48.617Z,986.31
2023-04-12T09:05:48.253Z,986.30
2023-04-12T09:06:48.430Z,986.29
2023-04-12T09:07:48.404Z,986.29
2023-04-12T09:08:48.240Z,986.28
2023-04-12T09:09:48.197Z,986.25
2023-04-12T09:10:48.262Z,986.24
2023-04-12T09:11:48.210Z,986.23
2023-04-12T09:12:48.993Z,986.20
2023-04-12T09:13:48.239Z,986.20
2023-04-12T09:14:48.192Z,986.15
2023-04-12T09:15:48.165Z,986.14
2023-04-12T09:16:48.350Z,986.11
2023-04-12T09:17:48.169Z,986.11
2023-04-12T09:18:48.224Z,986.06
2023-04-12T09:19:48.176Z,986.05
2023-04-12T09:20:48.159Z,986.00
2023-04-12T09:21:48.130Z,985.96
2023-04-12T09:22:48.241Z,985.97
2023-04-12T09:23:48.103Z,985.94
2023-04-12T09:24:48.075Z,985.93
2023-04-12T09:25:48.070Z,985.89
2023-04-12T09:26:48.178Z,985.87
2023-04-12T09:27:48.163Z,985.85
2023-04-12T09:28:48.166Z,985.82
2023-04-12T09:29:48.043Z,985.86
2023-04-12T09:30:48.106Z,985.83
2023-04-12T09:31:48.083Z,985.83
2023-04-12T09:32:48.272Z,985.82
2023-04-12T09:33:48.035Z,985.80
2023-04-12T09:34:48.065Z,985.81
2023-04-12T09:35:48.078Z,985.79
2023-04-12T09:36:47.955Z,985.78
2023-04-12T09:37:48.160Z,985.78
2023-04-12T09:38:47.911Z,985.78
2023-04-12T09:39:47.983Z,985.79
2023-04-12T09:40:47.973Z,985.76
2023-04-12T09:41:47.941Z,985.76
2023-04-12T09:42:47.915Z,985.76
2023-04-12T09:43:47.891Z,985.74
2023-04-12T09:44:47.956Z,985.72
2023-04-12T09:45:47.967Z,985.74
2023-04-12T09:46:48.320Z,985.71
2023-04-12T09:47:48.133Z,985.69
2023-04-12T09:48:47.886Z,985.69
2023-04-12T09:49:47.829Z,985.66
2023-04-12T09:50:47.876Z,985.63
2023-04-12T09:51:47.905Z,985.62
2023-04-12T09:52:47.847Z,985.55
2023-04-12T09:53:47.814Z,985.60
2023-04-12T09:54:47.813Z,985.60
2023-04-12T09:55:47.927Z,985.62
2023-04-12T09:56:47.685Z,985.58
2023-04-12T09:57:47.773Z,985.61
2023-04-12T09:58:47.818Z,985.56
2023-04-12T09:59:47.708Z,985.56
2023-04-12T10:00:47.756Z,985.55
2023-04-12T10:01:47.900Z,985.57
2023-04-12T10:02:48.118Z,985.56
2023-04-12T10:03:47.979Z,985.55
2023-04-12T10:04:48.112Z,985.54
2023-04-12T10:05:47.729Z,985.58
2023-04-12T10:06:48.062Z,985.54
2023-04-12T10:07:47.699Z,985.55
2023-04-12T10:08:47.830Z,985.56
2023-04-12T10:09:47.647Z,985.53
2023-04-12T10:10:47.649Z,985.48
2023-04-12T10:11:47.689Z,985.52
2023-04-12T10:12:47.919Z,985.50
2023-04-12T10:13:47.604Z,985.49
2023-04-12T10:14:54.055Z,985.48
2023-04-12T10:15:47.578Z,985.47
2023-04-12T10:16:47.604Z,985.48
2023-04-12T10:17:47.548Z,985.48
2023-04-12T10:18:47.531Z,985.43
2023-04-12T10:19:47.459Z,985.48
2023-04-12T10:20:47.430Z,985.41
2023-04-12T10:21:47.466Z,985.45
2023-04-12T10:22:47.437Z,985.44
2023-04-12T10:23:47.418Z,985.45
2023-04-12T10:24:47.406Z,985.45
2023-04-12T10:25:47.427Z,985.41
2023-04-12T10:26:47.386Z,985.42
2023-04-12T10:27:47.422Z,985.41
2023-04-12T10:28:47.409Z,985.37
2023-04-12T10:29:47.387Z,985.39
2023-04-12T10:30:47.317Z,985.39
2023-04-12T10:31:47.387Z,985.38
2023-04-12T10:32:47.441Z,985.35
2023-04-12T10:33:47.308Z,985.38
2023-04-12T10:34:47.324Z,985.35
2023-04-12T10:35:47.296Z,985.32
2023-04-12T10:36:47.261Z,985.29
2023-04-12T10:37:47.318Z,985.30
2023-04-12T10:38:47.283Z,985.30
2023-04-12T10:39:47.245Z,985.31
2023-04-12T10:40:47.233Z,985.27
2023-04-12T10:41:47.227Z,985.26
2023-04-12T10:42:47.226Z,985.23
2023-04-12T10:43:47.256Z,985.21
2023-04-12T10:44:47.208Z,985.23
2023-04-12T10:45:47.209Z,985.23
2023-04-12T10:46:47.225Z,985.24
2023-04-12T10:47:47.238Z,985.23
2023-04-12T10:48:47.143Z,985.23
2023-04-12T10:49:47.136Z,985.20
2023-04-12T10:50:47.223Z,985.22
2023-04-12T10:51:47.113Z,985.18
2023-04-12T10:52:47.132Z,985.17
2023-04-12T10:53:47.129Z,985.15
2023-04-12T10:54:47.091Z,985.09
2023-04-12T10:55:47.075Z,985.13
2023-04-12T10:56:47.076Z,985.09
2023-04-12T10:57:47.071Z,985.11
2023-04-12T10:58:47.074Z,985.06
2023-04-12T10:59:47.952Z,985.08
2023-04-12T11:00:47.097Z,985.06
2023-04-12T11:01:47.144Z,985.07
2023-04-12T11:02:47.073Z,985.06
2023-04-12T11:03:47.168Z,985.06
2023-04-12T11:04:47.113Z,985.12
2023-04-12T11:05:47.032Z,985.09
2023-04-12T11:06:46.982Z,985.07
2023-04-12T11:07:46.939Z,985.09
2023-04-12T11:08:46.982Z,985.08
2023-04-12T11:09:47.006Z,985.10
2023-04-12T11:10:46.979Z,985.10
2023-04-12T11:11:46.987Z,985.09
2023-04-12T11:12:46.896Z,985.09
2023-04-12T11:13:46.897Z,985.05
2023-04-12T11:14:46.929Z,985.05
2023-04-12T11:15:46.842Z,985.09
2023-04-12T11:16:46.877Z,985.11
2023-04-12T11:17:46.886Z,985.13
2023-04-12T11:18:46.923Z,985.11
2023-04-12T11:19:46.830Z,985.10
2023-04-12T11:20:46.879Z,985.11
2023-04-12T11:21:46.831Z,985.06
2023-04-12T11:22:46.780Z,985.04
2023-04-12T11:23:46.798Z,985.07
2023-04-12T11:24:46.773Z,985.05
2023-04-12T11:25:46.813Z,985.01
2023-04-12T11:26:46.770Z,985.06
2023-04-12T11:27:46.724Z,985.02
2023-04-12T11:28:47.719Z,985.02
2023-04-12T11:29:46.735Z,984.97
2023-04-12T11:30:46.671Z,984.96
2023-04-12T11:31:46.760Z,984.93
2023-04-12T11:32:46.766Z,984.90
2023-04-12T11:33:46.640Z,984.87
2023-04-12T11:34:46.654Z,984.89
2023-04-12T11:35:46.680Z,984.91
2023-04-12T11:36:46.619Z,984.98
2023-04-12T11:37:46.639Z,984.91
2023-04-12T11:38:46.592Z,984.92
2023-04-12T11:39:46.566Z,984.90
2023-04-12T11:40:46.572Z,984.89
2023-04-12T11:41:46.553Z,984.89
2023-04-12T11:42:46.591Z,984.87
2023-04-12T11:43:46.537Z,984.88
2023-04-12T11:45:46.543Z,984.86
2023-04-12T11:46:46.517Z,984.85
2023-04-12T11:47:46.694Z,984.87
2023-04-12T11:48:46.480Z,984.88
2023-04-12T11:49:46.475Z,984.91
2023-04-12T11:50:51.853Z,984.94
2023-04-12T11:51:48.982Z,984.91
2023-04-12T11:52:46.687Z,984.92
2023-04-12T11:53:46.414Z,984.90
2023-04-12T11:54:46.413Z,984.89
2023-04-12T11:55:46.392Z,984.87
2023-04-12T11:56:46.389Z,984.88
2023-04-12T11:57:46.402Z,984.88
2023-04-12T11:58:46.374Z,984.91
2023-04-12T11:59:46.343Z,984.90
2023-04-12T12:00:46.351Z,984.87
2023-04-12T12:01:46.424Z,984.88
2023-04-12T12:02:56.046Z,984.91
2023-04-12T12:03:46.504Z,984.91
2023-04-12T12:04:46.563Z,984.93
2023-04-12T12:05:46.538Z,984.95
2023-04-12T12:06:46.823Z,984.93
2023-04-12T12:07:46.288Z,984.95
2023-04-12T12:08:46.259Z,984.91
2023-04-12T12:09:46.225Z,984.91
2023-04-12T12:11:03.966Z,984.87
2023-04-12T12:11:46.227Z,984.82
2023-04-12T12:12:46.229Z,984.82
2023-04-12T12:13:46.202Z,984.84
2023-04-12T12:14:46.174Z,984.82
2023-04-12T12:15:46.251Z,984.85
2023-04-12T12:16:46.155Z,984.85
2023-04-12T12:17:46.222Z,984.82
2023-04-12T12:18:46.153Z,984.82
2023-04-12T12:19:46.174Z,984.82
2023-04-12T12:20:46.135Z,984.82
2023-04-12T12:21:46.110Z,984.82
2023-04-12T12:22:46.110Z,984.84
2023-04-12T12:23:46.089Z,984.86
2023-04-12T12:24:46.086Z,984.88
2023-04-12T12:25:46.108Z,984.91
2023-04-12T12:26:46.072Z,984.93
2023-04-12T12:27:46.119Z,984.94
2023-04-12T12:28:46.106Z,984.95
2023-04-12T12:29:46.014Z,984.97
2023-04-12T12:30:46.011Z,984.98
2023-04-12T12:31:46.081Z,985.00
2023-04-12T12:32:46.102Z,984.97
2023-04-12T12:33:47.317Z,984.96
2023-04-12T12:34:45.958Z,985.01
2023-04-12T12:35:45.947Z,985.01
2023-04-12T12:36:45.949Z,985.03
2023-04-12T12:37:45.939Z,985.07
2023-04-12T12:38:45.913Z,985.12
2023-04-12T12:39:45.904Z,985.10
2023-04-12T12:40:45.891Z,985.11
2023-04-12T12:41:45.890Z,985.13
2023-04-12T12:42:45.928Z,985.13
2023-04-12T12:43:45.885Z,985.17
2023-04-12T12:44:45.989Z,985.18
2023-04-12T12:45:45.875Z,985.14
2023-04-12T12:46:55.284Z,985.11
2023-04-12T12:47:45.874Z,985.07
2023-04-12T12:48:45.860Z,985.04
2023-04-12T12:49:45.802Z,985.02
2023-04-12T12:50:45.816Z,985.02
2023-04-12T12:51:45.788Z,985.03
2023-04-12T12:52:45.767Z,985.06
2023-04-12T12:53:45.767Z,985.06
2023-04-12T12:54:45.747Z,985.10
2023-04-12T12:55:45.732Z,985.10
2023-04-12T12:56:45.722Z,985.12
2023-04-12T12:57:55.226Z,985.10
2023-04-12T12:58:45.705Z,985.07
2023-04-12T12:59:45.693Z,985.01
2023-04-12T13:00:45.677Z,984.99
2023-04-12T13:01:45.836Z,984.99
2023-04-12T13:02:45.961Z,984.98
2023-04-12T13:03:45.862Z,984.99
2023-04-12T13:04:45.748Z,984.94
2023-04-12T13:05:45.636Z,984.96
2023-04-12T13:06:45.616Z,984.92
2023-04-12T13:07:45.617Z,984.93
2023-04-12T13:08:45.713Z,984.94
2023-04-12T13:09:45.585Z,984.91
2023-04-12T13:10:45.584Z,984.90
2023-04-12T13:11:45.560Z,984.87
2023-04-12T13:12:45.588Z,984.85
2023-04-12T13:13:45.537Z,984.85
2023-04-12T13:14:45.539Z,984.82
2023-04-12T13:15:45.530Z,984.79
2023-04-12T13:16:45.640Z,984.80
2023-04-12T13:17:45.561Z,984.80
2023-04-12T13:18:45.498Z,984.82
2023-04-12T13:19:45.474Z,984.85
2023-04-12T13:20:45.471Z,984.85
2023-04-12T13:21:45.463Z,984.85
2023-04-12T13:22:45.481Z,984.86
2023-04-12T13:23:45.426Z,984.86
2023-04-12T13:24:45.418Z,984.87
2023-04-12T13:25:45.401Z,984.87
2023-04-12T13:26:45.389Z,984.85
2023-04-12T13:27:45.410Z,984.88
2023-04-12T13:28:45.367Z,984.92
2023-04-12T13:29:45.353Z,984.92
2023-04-12T13:30:45.351Z,984.94
2023-04-12T13:31:45.363Z,984.94
2023-04-12T13:32:45.407Z,984.92
2023-04-12T13:33:45.308Z,984.94
2023-04-12T13:34:45.305Z,984.93
2023-04-12T13:35:45.313Z,984.86
2023-04-12T13:36:45.289Z,984.85
2023-04-12T13:37:45.282Z,984.85
2023-04-12T13:38:45.329Z,984.85
2023-04-12T13:39:45.238Z,984.87
2023-04-12T13:40:45.230Z,984.89
2023-04-12T13:41:45.227Z,984.88
2023-04-12T13:42:45.243Z,984.84
2023-04-12T13:43:45.221Z,984.81
2023-04-12T13:44:45.201Z,984.78
2023-04-12T13:45:45.187Z,984.76
2023-04-12T13:46:45.195Z,984.73
2023-04-12T13:47:45.240Z,984.71
2023-04-12T13:48:45.220Z,984.72
2023-04-12T13:49:45.145Z,984.70
2023-04-12T13:50:45.131Z,984.69
2023-04-12T13:51:45.134Z,984.68
2023-04-12T13:52:45.103Z,984.68
2023-04-12T13:53:45.161Z,984.70
2023-04-12T13:54:45.102Z,984.74
2023-04-12T13:55:45.074Z,984.75
2023-04-12T13:56:45.083Z,984.74
2023-04-12T13:57:45.048Z,984.74
2023-04-12T13:58:45.072Z,984.74
2023-04-12T13:59:45.027Z,984.76
2023-04-12T14:00:45.010Z,984.74
2023-04-12T14:01:45.166Z,984.74
2023-04-12T14:02:45.109Z,984.69
2023-04-12T14:03:45.065Z,984.65
2023-04-12T14:04:45.001Z,984.63
2023-04-12T14:05:44.956Z,984.64
2023-04-12T14:06:44.963Z,984.63
2023-04-12T14:07:44.952Z,984.61
2023-04-12T14:08:46.450Z,984.61
2023-04-12T14:09:44.914Z,984.56
2023-04-12T14:10:44.936Z,984.53
2023-04-12T14:11:44.889Z,984.59
2023-04-12T14:12:44.888Z,984.59
2023-04-12T14:13:44.881Z,984.60
2023-04-12T14:14:44.867Z,984.58
2023-04-12T14:15:44.837Z,984.56
2023-04-12T14:16:44.927Z,984.57
2023-04-12T14:17:44.995Z,984.58
2023-04-12T14:18:44.842Z,984.60
2023-04-12T14:19:44.801Z,984.61
2023-04-12T14:20:44.795Z,984.61
2023-04-12T14:21:44.786Z,984.63
2023-04-12T14:22:44.771Z,984.64
2023-04-12T14:23:44.803Z,984.64
2023-04-12T14:24:44.763Z,984.66
2023-04-12T14:25:44.757Z,984.68
2023-04-12T14:26:44.724Z,984.66
2023-04-12T14:27:44.726Z,984.69
2023-04-12T14:28:44.710Z,984.70
2023-04-12T14:29:44.750Z,984.69
2023-04-12T14:30:44.699Z,984.70
2023-04-12T14:31:44.670Z,984.72
2023-04-12T14:32:45.955Z,984.73
2023-04-12T14:33:45.134Z,984.73
2023-04-12T14:34:44.638Z,984.75
2023-04-12T14:35:44.623Z,984.74
2023-04-12T14:36:44.628Z,984.74
2023-04-12T14:37:45.503Z,984.74
2023-04-12T14:38:44.615Z,984.75
2023-04-12T14:39:44.618Z,984.76
2023-04-12T14:40:44.582Z,984.78
2023-04-12T14:41:44.560Z,984.78
2023-04-12T14:42:44.575Z,984.77
2023-04-12T14:43:44.592Z,984.77
2023-04-12T14:44:44.561Z,984.77
2023-04-12T14:45:44.508Z,984.77
2023-04-12T14:46:44.602Z,984.81
2023-04-12T14:47:44.549Z,984.78
2023-04-12T14:48:44.525Z,984.76
2023-04-12T14:49:44.475Z,984.78
2023-04-12T14:50:44.475Z,984.76
2023-04-12T14:51:44.454Z,984.77
2023-04-12T14:52:44.477Z,984.75
2023-04-12T14:53:44.460Z,984.74
2023-04-12T14:54:44.428Z,984.75
2023-04-12T14:55:44.426Z,984.76
2023-04-12T14:56:52.072Z,984.74
2023-04-12T14:57:44.427Z,984.76
2023-04-12T14:58:44.399Z,984.78
2023-04-12T14:59:44.407Z,984.79
2023-04-12T15:00:44.374Z,984.79
2023-04-12T15:01:44.432Z,984.80
2023-04-12T15:02:44.587Z,984.74
2023-04-12T15:03:44.498Z,984.77
2023-04-12T15:04:44.385Z,984.80
2023-04-12T15:05:44.306Z,984.80
2023-04-12T15:06:44.304Z,984.79
2023-04-12T15:07:44.339Z,984.80
2023-04-12T15:08:44.341Z,984.80
2023-04-12T15:09:44.270Z,984.80
2023-04-12T15:10:44.270Z,984.79
2023-04-12T15:11:44.258Z,984.80
2023-04-12T15:12:44.228Z,984.77
2023-04-12T15:13:44.240Z,984.82
2023-04-12T15:14:44.208Z,984.83
2023-04-12T15:15:44.194Z,984.83
2023-04-12T15:16:44.353Z,984.84
2023-04-12T15:17:44.276Z,984.80
2023-04-12T15:18:44.172Z,984.79
2023-04-12T15:19:44.162Z,984.78
2023-04-12T15:20:44.145Z,984.73
2023-04-12T15:21:44.131Z,984.74
2023-04-12T15:22:44.141Z,984.73
2023-04-12T15:23:44.143Z,984.71
2023-04-12T15:24:44.114Z,984.71
2023-04-12T15:25:44.101Z,984.70
2023-04-12T15:26:44.108Z,984.74
2023-04-12T15:27:44.217Z,984.73
2023-04-12T15:28:44.113Z,984.76
2023-04-12T15:29:44.135Z,984.77
2023-04-12T15:30:44.076Z,984.79
2023-04-12T15:31:44.081Z,984.79
2023-04-12T15:32:44.051Z,984.83
2023-04-12T15:33:44.074Z,984.86
2023-04-12T15:34:44.027Z,984.88
2023-04-12T15:35:44.143Z,984.87
2023-04-12T15:36:44.048Z,984.90
2023-04-12T15:37:44.076Z,984.94
2023-04-12T15:38:44.014Z,985.00
2023-04-12T15:39:43.944Z,985.18
2023-04-12T15:40:43.939Z,985.38
2023-04-12T15:41:43.926Z,985.43
2023-04-12T15:42:43.939Z,985.58
2023-04-12T15:43:43.916Z,985.48
2023-04-12T15:44:43.886Z,985.43
2023-04-12T15:45:43.926Z,985.41
2023-04-12T15:46:43.890Z,985.49
2023-04-12T15:47:43.925Z,985.55
2023-04-12T15:48:43.855Z,985.53
2023-04-12T15:49:43.826Z,985.57
2023-04-12T15:50:43.822Z,985.66
2023-04-12T15:51:43.837Z,985.62
2023-04-12T15:52:43.827Z,985.66
2023-04-12T15:53:43.791Z,985.71
2023-04-12T15:54:44.244Z,985.71
2023-04-12T15:55:43.788Z,985.76
2023-04-12T15:56:43.758Z,985.77
2023-04-12T15:57:43.782Z,985.86
2023-04-12T15:58:43.752Z,985.90
2023-04-12T15:59:43.738Z,985.91
2023-04-12T16:00:43.716Z,985.92
2023-04-12T16:01:43.760Z,985.97
2023-04-12T16:02:43.839Z,985.95
2023-04-12T16:03:43.747Z,985.99
2023-04-12T16:04:43.797Z,986.04
2023-04-12T16:05:44.586Z,986.03
2023-04-12T16:06:43.669Z,986.05
2023-04-12T16:07:43.640Z,986.07
2023-04-12T16:08:46.649Z,986.11
2023-04-12T16:09:43.628Z,986.12
2023-04-12T16:10:43.617Z,986.11
2023-04-12T16:11:43.605Z,986.15
2023-04-12T16:12:43.583Z,986.13
2023-04-12T16:13:43.597Z,986.18
2023-04-12T16:14:51.913Z,986.13
2023-04-12T16:15:43.594Z,986.18
2023-04-12T16:16:43.609Z,986.17
2023-04-12T16:17:43.556Z,986.18
2023-04-12T16:18:43.534Z,986.17
2023-04-12T16:19:43.513Z,986.17
2023-04-12T16:20:43.492Z,986.23
2023-04-12T16:21:44.565Z,986.27
2023-04-12T16:22:43.481Z,986.24
2023-04-12T16:23:43.521Z,986.27
2023-04-12T16:24:43.466Z,986.26
2023-04-12T16:25:43.450Z,986.24
2023-04-12T16:26:43.430Z,986.24
2023-04-12T16:27:43.461Z,986.24
2023-04-12T16:28:43.407Z,986.25
2023-04-12T16:29:43.407Z,986.28